Carmona, Texas
Current Conditions -  °F | °C
As of 3:53 AM on Thursday 29 Jan 2015 (Local Time) from KLFK Reporting Station
Overcast Overcast  
Wind Chill: 16°   Ceiling: 500
Heat Index: 16°   Visibility: 8mi
Dew Point: 14°   Wind: 7mph
Humidity: 87%   Direction: 190°S
Pressure: 30.15"   Gusts: NA
Location:  31.024°N, 94.7686°W
Report Text: KLFK 290953Z AUTO 19006KT 8SM OVC005 16/14 A3015 RMK AO2 SLP205 T01610139
Loading
Personal Weather Stations






























Interactive Weather Map New forecast layout! Learn more

10-Day Weather Forecast

Advertisements
Track Severe Weather on mobile